Time;durP1;ratioP1;P1;durP2;ratioP2;P2;SDS_P1;SDS_P2;PMS_P1;PMS_P2;Temp;Humidity;BMP_temperature;BMP_pressure;BME280_temperature;BME280_humidity;BME280_pressure;Samples;Min_cycle;Max_cycle;Signal;HPM_P1;HPM_P2
2022/03/10 00:00:50;;;;;;;2.67;2.47;;;20.50;39.50;;;;;;5086177;27;43704;-61
2022/03/10 00:03:18;;;;;;;2.80;2.60;;;20.50;39.50;;;;;;5081051;27;43474;-60
2022/03/10 00:05:46;;;;;;;2.92;2.72;;;20.40;39.40;;;;;;5085831;27;43640;-60
2022/03/10 00:08:14;;;;;;;3.03;2.83;;;20.40;39.40;;;;;;5082635;27;43715;-60
2022/03/10 00:10:41;;;;;;;2.80;2.60;;;20.40;39.50;;;;;;5085947;27;43513;-60
2022/03/10 00:13:08;;;;;;;2.72;2.53;;;20.40;39.40;;;;;;5083021;27;43439;-60
2022/03/10 00:15:37;;;;;;;2.83;2.60;;;20.40;39.50;;;;;;5082697;28;43483;-61
2022/03/10 00:18:05;;;;;;;2.95;2.50;;;20.40;39.40;;;;;;5083044;27;44018;-60
2022/03/10 00:20:32;;;;;;;2.78;2.58;;;20.30;39.40;;;;;;5083189;27;43608;-60
2022/03/10 00:23:00;;;;;;;2.70;2.50;;;20.30;39.40;;;;;;5085875;27;43396;-61
2022/03/10 00:25:27;;;;;;;3.03;2.80;;;20.30;39.40;;;;;;5085595;28;43546;-61
2022/03/10 00:27:55;;;;;;;3.17;2.90;;;20.30;39.40;;;;;;5082541;28;45040;-60
2022/03/10 00:30:22;;;;;;;3.13;2.92;;;20.30;39.40;;;;;;5085010;27;43510;-60
2022/03/10 00:32:52;;;;;;;2.85;2.65;;;20.20;39.30;;;;;;5084878;27;43431;-60
2022/03/10 00:35:23;;;;;;;2.70;2.50;;;20.20;39.30;;;;;;5081746;27;43631;-60
2022/03/10 00:37:58;;;;;;;3.03;2.70;;;20.20;39.30;;;;;;5085218;27;44480;-59
2022/03/10 00:40:26;;;;;;;2.97;2.78;;;20.20;39.30;;;;;;5082821;27;43908;-60
2022/03/10 00:42:54;;;;;;;2.65;2.42;;;20.20;39.30;;;;;;5080350;28;43522;-60
2022/03/10 00:45:22;;;;;;;3.33;2.95;;;20.20;39.30;;;;;;5084767;27;43536;-60
2022/03/10 00:47:52;;;;;;;3.10;2.83;;;20.20;39.30;;;;;;5081580;27;43795;-60
2022/03/10 00:50:26;;;;;;;3.05;2.75;;;20.10;39.30;;;;;;5085120;27;43722;-60
2022/03/10 00:52:53;;;;;;;2.83;2.50;;;20.10;39.30;;;;;;5084831;27;43419;-60
2022/03/10 00:55:21;;;;;;;3.15;2.95;;;20.10;39.30;;;;;;5082184;27;43486;-59
2022/03/10 00:57:50;;;;;;;2.90;2.70;;;20.10;39.30;;;;;;5081819;27;44756;-60
2022/03/10 01:00:18;;;;;;;3.30;3.00;;;20.00;39.20;;;;;;5085382;27;43428;-61
2022/03/10 01:02:46;;;;;;;3.08;2.65;;;20.00;39.50;;;;;;5081697;27;43500;-59
2022/03/10 01:05:13;;;;;;;3.10;2.90;;;20.00;39.50;;;;;;5085199;28;43444;-60
2022/03/10 01:07:41;;;;;;;3.13;2.83;;;20.00;39.30;;;;;;5097179;27;44251;-60
2022/03/10 01:10:12;;;;;;;3.10;2.80;;;20.00;39.40;;;;;;5082357;27;43723;-59
2022/03/10 01:12:42;;;;;;;3.00;2.80;;;20.00;39.20;;;;;;5083836;27;43434;-60
2022/03/10 01:15:18;;;;;;;2.90;2.70;;;20.00;39.30;;;;;;5082217;27;43537;-60
2022/03/10 01:17:46;;;;;;;3.03;2.83;;;19.90;39.50;;;;;;5084975;27;43792;-60
2022/03/10 01:20:21;;;;;;;2.88;2.63;;;19.90;39.20;;;;;;5079781;28;43425;-62
2022/03/10 01:22:48;;;;;;;3.00;2.80;;;19.90;39.20;;;;;;5085102;28;43458;-60
2022/03/10 01:25:18;;;;;;;2.85;2.65;;;19.90;39.50;;;;;;5081871;27;43572;-60
2022/03/10 01:27:46;;;;;;;3.30;3.00;;;19.90;39.20;;;;;;5084698;27;44980;-60
2022/03/10 01:30:14;;;;;;;3.33;3.03;;;19.90;39.40;;;;;;5081990;27;44296;-60
2022/03/10 01:32:42;;;;;;;3.22;3.00;;;19.80;39.40;;;;;;5082025;27;43386;-60
2022/03/10 01:35:11;;;;;;;3.40;3.10;;;19.80;39.50;;;;;;5084468;28;43515;-60
2022/03/10 01:37:39;;;;;;;3.13;2.83;;;19.80;39.40;;;;;;5084802;28;43791;-60
2022/03/10 01:40:12;;;;;;;3.33;3.03;;;19.80;39.50;;;;;;5084239;28;43367;-59
2022/03/10 01:42:40;;;;;;;3.33;3.13;;;19.80;39.40;;;;;;5081479;27;43396;-59
2022/03/10 01:45:10;;;;;;;2.92;2.72;;;19.80;39.50;;;;;;5078730;28;43450;-60
2022/03/10 01:47:38;;;;;;;3.42;3.13;;;19.70;39.50;;;;;;5084238;27;44052;-60
2022/03/10 01:50:07;;;;;;;3.10;2.90;;;19.70;39.30;;;;;;5079171;28;44154;-60
2022/03/10 01:52:35;;;;;;;3.22;2.92;;;19.70;39.40;;;;;;5083223;28;43574;-60
2022/03/10 01:55:03;;;;;;;3.03;2.83;;;19.70;39.50;;;;;;5082869;28;43498;-60
2022/03/10 01:57:31;;;;;;;3.78;3.47;;;19.70;39.50;;;;;;5083851;27;44685;-59
2022/03/10 01:59:58;;;;;;;3.00;2.80;;;19.70;39.50;;;;;;5081967;28;43436;-60
2022/03/10 02:02:26;;;;;;;2.95;2.75;;;19.60;39.40;;;;;;5078893;27;43546;-60
2022/03/10 02:04:55;;;;;;;3.15;2.95;;;19.60;39.50;;;;;;5084304;27;43597;-60
2022/03/10 02:10:17;;;;;;;3.60;3.30;;;19.60;39.50;;;;;;5082047;28;43521;-60
2022/03/10 02:12:50;;;;;;;3.80;3.20;;;19.60;39.50;;;;;;5079202;28;43410;-60
2022/03/10 02:18:15;;;;;;;3.38;3.13;;;19.60;39.50;;;;;;5076874;28;44083;-60
2022/03/10 02:20:43;;;;;;;3.22;3.00;;;19.60;39.40;;;;;;5081239;28;43489;-60
2022/03/10 02:23:11;;;;;;;3.00;2.80;;;19.50;39.60;;;;;;5077522;28;43430;-60
2022/03/10 02:25:40;;;;;;;3.20;3.00;;;19.50;39.50;;;;;;5083704;27;43484;-60
2022/03/10 02:28:08;;;;;;;3.40;3.10;;;19.50;39.40;;;;;;5080813;27;43810;-60
2022/03/10 02:30:36;;;;;;;3.20;3.00;;;19.40;39.40;;;;;;5083477;27;43695;-60
2022/03/10 02:33:05;;;;;;;3.30;3.00;;;19.40;39.30;;;;;;5082545;28;43562;-59
2022/03/10 02:35:33;;;;;;;3.30;3.00;;;19.40;39.40;;;;;;5083666;27;44085;-60
2022/03/10 02:38:01;;;;;;;3.40;3.10;;;19.50;39.60;;;;;;5076137;28;44075;-60
2022/03/10 02:40:28;;;;;;;3.25;3.00;;;19.40;39.50;;;;;;5083799;27;43675;-60
2022/03/10 02:42:56;;;;;;;3.50;3.30;;;19.40;39.50;;;;;;5083191;27;43436;-60
2022/03/10 02:45:24;;;;;;;3.22;3.00;;;19.40;39.40;;;;;;5083522;27;43469;-60
2022/03/10 02:47:51;;;;;;;3.90;3.58;;;19.40;39.50;;;;;;5080580;27;44725;-60
2022/03/10 02:50:23;;;;;;;3.25;3.05;;;19.40;39.50;;;;;;5083531;28;43964;-60
2022/03/10 02:52:50;;;;;;;3.30;3.00;;;19.30;39.40;;;;;;5081513;27;44023;-61
2022/03/10 02:55:18;;;;;;;4.07;3.35;;;19.30;39.50;;;;;;5078450;28;43498;-60
2022/03/10 02:57:45;;;;;;;3.75;3.45;;;19.30;39.50;;;;;;5079346;28;44106;-59
2022/03/10 03:00:14;;;;;;;3.50;3.20;;;19.30;39.50;;;;;;5083529;27;44079;-61
2022/03/10 03:02:42;;;;;;;3.40;3.10;;;19.30;39.60;;;;;;5083595;27;43949;-61
2022/03/10 03:05:14;;;;;;;3.47;3.20;;;19.30;39.60;;;;;;5083321;28;43442;-60
2022/03/10 03:07:44;;;;;;;3.42;3.20;;;19.30;39.60;;;;;;5082854;27;45147;-60
2022/03/10 03:10:13;;;;;;;3.47;3.17;;;19.20;39.60;;;;;;5083132;28;43515;-60
2022/03/10 03:12:51;;;;;;;3.38;3.13;;;19.20;39.60;;;;;;5080638;28;43346;-59
2022/03/10 03:15:19;;;;;;;3.65;3.35;;;19.20;39.60;;;;;;5086942;27;43429;-60
2022/03/10 03:17:47;;;;;;;3.83;3.53;;;19.20;39.50;;;;;;5086967;27;44699;-60
2022/03/10 03:20:15;;;;;;;3.65;3.35;;;19.20;39.50;;;;;;5084080;28;44076;-60
2022/03/10 03:22:44;;;;;;;3.40;3.10;;;19.20;39.50;;;;;;5087192;27;43547;-60
2022/03/10 03:25:17;;;;;;;3.45;3.15;;;19.10;39.60;;;;;;5082601;28;43569;-60
2022/03/10 03:27:46;;;;;;;3.85;3.40;;;19.10;39.50;;;;;;5086632;27;43973;-60
2022/03/10 03:30:14;;;;;;;3.45;3.15;;;19.10;39.50;;;;;;5086166;27;43440;-60
2022/03/10 03:32:42;;;;;;;3.70;3.22;;;19.10;39.50;;;;;;5083883;28;43422;-59
2022/03/10 03:35:10;;;;;;;3.38;3.13;;;19.10;39.60;;;;;;5086651;27;43422;-60
2022/03/10 03:37:37;;;;;;;3.60;3.30;;;19.10;39.50;;;;;;5086529;27;43830;-61
2022/03/10 03:40:07;;;;;;;3.40;3.20;;;19.10;39.50;;;;;;5086323;27;43660;-61
2022/03/10 03:42:34;;;;;;;3.65;3.35;;;19.10;39.60;;;;;;5086348;27;43484;-60
2022/03/10 03:45:03;;;;;;;3.42;3.17;;;19.00;39.50;;;;;;5086210;27;43460;-60
2022/03/10 03:47:31;;;;;;;3.25;3.05;;;19.00;39.50;;;;;;5086217;27;44730;-60
2022/03/10 03:49:59;;;;;;;3.30;3.10;;;19.10;39.50;;;;;;5086096;27;43465;-59
2022/03/10 03:52:26;;;;;;;3.40;3.10;;;19.00;39.50;;;;;;5083274;28;43471;-60
2022/03/10 03:54:54;;;;;;;3.88;3.58;;;19.00;39.50;;;;;;5079744;28;43485;-59
2022/03/10 03:57:21;;;;;;;3.40;3.10;;;19.00;39.50;;;;;;5086120;27;43813;-59
2022/03/10 03:59:49;;;;;;;3.30;3.10;;;19.00;39.50;;;;;;5086221;28;43396;-60
2022/03/10 04:02:16;;;;;;;3.70;3.40;;;18.90;39.50;;;;;;5084257;27;43431;-60
2022/03/10 04:04:44;;;;;;;3.47;3.17;;;18.90;39.70;;;;;;5086282;27;43500;-60
2022/03/10 04:07:14;;;;;;;3.58;3.28;;;18.90;39.50;;;;;;5085608;27;44703;-60
2022/03/10 04:09:42;;;;;;;3.47;3.22;;;18.90;39.60;;;;;;5085608;27;43486;-61
2022/03/10 04:12:09;;;;;;;3.42;3.13;;;18.90;39.50;;;;;;5084949;28;43448;-59
2022/03/10 04:14:37;;;;;;;3.45;3.15;;;18.90;39.50;;;;;;5085440;28;43430;-60
2022/03/10 04:17:05;;;;;;;3.67;3.38;;;18.90;39.50;;;;;;5085945;27;43864;-60
2022/03/10 04:19:33;;;;;;;3.63;3.33;;;18.90;39.50;;;;;;5082896;28;43490;-59
2022/03/10 04:22:00;;;;;;;3.20;3.00;;;18.80;39.50;;;;;;5085868;27;43460;-59
2022/03/10 04:24:28;;;;;;;4.15;3.28;;;18.80;39.50;;;;;;5084563;28;43557;-60
2022/03/10 04:26:55;;;;;;;3.40;3.20;;;18.80;39.50;;;;;;5084536;28;43905;-60
2022/03/10 04:29:23;;;;;;;3.60;3.30;;;18.80;39.40;;;;;;5083573;28;43520;-61
2022/03/10 04:31:50;;;;;;;3.40;3.15;;;18.80;39.90;;;;;;5085964;27;43476;-60
2022/03/10 04:34:18;;;;;;;3.65;3.35;;;18.80;39.50;;;;;;5085739;27;43592;-60
2022/03/10 04:36:46;;;;;;;3.35;3.15;;;18.80;39.50;;;;;;5085719;27;43800;-60
2022/03/10 04:39:13;;;;;;;3.70;3.40;;;18.80;39.40;;;;;;5082827;28;43654;-61
2022/03/10 04:41:40;;;;;;;3.85;3.55;;;18.70;39.50;;;;;;5085756;27;43425;-60
2022/03/10 04:44:10;;;;;;;3.83;3.53;;;18.70;39.40;;;;;;5085240;27;43447;-60
2022/03/10 04:46:37;;;;;;;3.33;3.13;;;18.80;39.40;;;;;;5085042;28;44032;-60
2022/03/10 04:49:05;;;;;;;3.50;3.20;;;18.80;39.40;;;;;;5085217;27;44121;-61
2022/03/10 04:51:33;;;;;;;3.78;3.47;;;18.80;39.50;;;;;;5085441;27;43420;-60
2022/03/10 04:54:00;;;;;;;3.70;3.40;;;18.70;39.40;;;;;;5085147;28;43655;-60
2022/03/10 04:56:28;;;;;;;3.80;3.50;;;18.70;39.40;;;;;;5084976;27;43860;-60
2022/03/10 04:58:55;;;;;;;3.88;3.58;;;18.70;39.50;;;;;;5084656;27;43717;-60
2022/03/10 05:01:23;;;;;;;3.55;3.33;;;18.60;39.40;;;;;;5085331;27;43473;-60
2022/03/10 05:03:52;;;;;;;3.60;3.30;;;18.70;39.50;;;;;;5085342;27;43538;-59
2022/03/10 05:06:23;;;;;;;3.20;3.00;;;18.60;39.50;;;;;;5084435;28;43913;-61
2022/03/10 05:08:50;;;;;;;3.60;3.30;;;18.60;39.50;;;;;;5084856;28;43933;-60
2022/03/10 05:11:18;;;;;;;3.67;3.38;;;18.60;39.50;;;;;;5085419;27;43462;-61
2022/03/10 05:13:45;;;;;;;3.50;3.20;;;18.60;39.50;;;;;;5084803;27;43510;-61
2022/03/10 05:16:13;;;;;;;3.88;3.58;;;18.60;39.60;;;;;;5084902;27;43824;-60
2022/03/10 05:18:41;;;;;;;3.78;3.47;;;18.60;39.60;;;;;;5084621;27;44004;-60
2022/03/10 05:21:08;;;;;;;3.70;3.40;;;18.60;39.50;;;;;;5085228;27;43436;-60
2022/03/10 05:23:36;;;;;;;3.83;3.47;;;18.60;39.60;;;;;;5084939;27;43549;-60
2022/03/10 05:26:03;;;;;;;3.72;3.42;;;18.50;39.60;;;;;;5084556;27;43793;-60
2022/03/10 05:28:30;;;;;;;3.75;3.40;;;18.50;39.60;;;;;;5084426;27;43480;-60
2022/03/10 05:30:58;;;;;;;3.67;3.38;;;18.50;39.70;;;;;;5084645;27;43466;-60
2022/03/10 05:33:25;;;;;;;4.00;3.70;;;18.50;39.60;;;;;;5084920;28;43498;-59
2022/03/10 05:35:53;;;;;;;3.70;3.40;;;18.50;39.50;;;;;;5083988;27;44866;-59
2022/03/10 05:38:20;;;;;;;3.70;3.40;;;18.50;39.60;;;;;;5083307;28;43571;-60
2022/03/10 05:40:48;;;;;;;3.67;3.38;;;18.50;39.50;;;;;;5084814;27;43519;-60
2022/03/10 05:43:15;;;;;;;3.67;3.38;;;18.60;39.50;;;;;;5084352;28;43640;-59
2022/03/10 05:45:43;;;;;;;3.75;3.45;;;18.50;39.50;;;;;;5083042;28;44174;-60
2022/03/10 05:48:10;;;;;;;3.60;3.38;;;18.60;39.60;;;;;;5084361;27;44006;-60
2022/03/10 05:50:39;;;;;;;3.85;3.55;;;18.60;39.60;;;;;;5085015;27;43483;-60
2022/03/10 05:53:07;;;;;;;3.40;3.10;;;18.60;40.00;;;;;;5084814;27;43443;-59
2022/03/10 05:55:35;;;;;;;3.78;3.47;;;18.50;39.60;;;;;;5081052;28;43796;-60
2022/03/10 05:58:02;;;;;;;3.60;3.30;;;18.60;39.60;;;;;;5084222;28;43975;-60
2022/03/10 06:00:30;;;;;;;3.50;3.20;;;18.60;39.60;;;;;;5082838;28;44011;-60
2022/03/10 06:02:57;;;;;;;3.58;3.28;;;18.60;39.60;;;;;;5081363;27;43662;-59
2022/03/10 06:05:25;;;;;;;3.90;3.60;;;18.60;39.60;;;;;;5079774;28;44160;-60
2022/03/10 06:07:52;;;;;;;3.70;3.40;;;18.60;39.50;;;;;;5083675;27;43690;-61
2022/03/10 06:10:20;;;;;;;4.05;3.65;;;18.60;39.60;;;;;;5084299;27;43460;-59
2022/03/10 06:12:50;;;;;;;3.40;3.10;;;18.60;39.50;;;;;;5080056;28;43652;-60
2022/03/10 06:15:17;;;;;;;4.10;3.80;;;18.60;39.60;;;;;;5083533;28;43783;-61
2022/03/10 06:17:45;;;;;;;3.90;3.60;;;18.60;39.60;;;;;;5083880;27;43553;-61
2022/03/10 06:20:12;;;;;;;3.53;3.22;;;18.60;39.50;;;;;;5083608;27;43475;-60
2022/03/10 06:22:40;;;;;;;4.00;3.60;;;18.60;39.50;;;;;;5083988;27;43580;-60
2022/03/10 06:25:09;;;;;;;3.55;3.25;;;18.60;39.50;;;;;;5083704;27;45113;-60
2022/03/10 06:27:37;;;;;;;3.70;3.40;;;18.70;39.60;;;;;;5081040;27;44305;-60
2022/03/10 06:30:05;;;;;;;3.67;3.38;;;18.70;39.60;;;;;;5079546;28;43410;-60
2022/03/10 06:32:33;;;;;;;3.60;3.30;;;18.70;39.60;;;;;;5081605;27;43514;-59
2022/03/10 06:35:01;;;;;;;3.85;3.55;;;18.70;39.60;;;;;;5078934;27;44147;-60
2022/03/10 06:37:29;;;;;;;3.80;3.50;;;18.70;39.60;;;;;;5083486;28;43492;-59
2022/03/10 06:39:58;;;;;;;3.58;3.28;;;18.70;39.70;;;;;;5080751;27;43438;-60
2022/03/10 06:42:25;;;;;;;3.40;3.10;;;18.70;39.70;;;;;;5083585;28;43458;-60
2022/03/10 06:44:53;;;;;;;3.55;3.25;;;18.70;39.60;;;;;;5082177;28;43865;-60
2022/03/10 06:47:20;;;;;;;3.58;3.28;;;18.70;39.60;;;;;;5079932;28;44032;-60
2022/03/10 06:49:48;;;;;;;3.40;3.10;;;18.70;39.60;;;;;;5083438;27;43454;-60
2022/03/10 06:52:19;;;;;;;3.60;3.30;;;18.70;39.60;;;;;;5081113;27;43479;-61
2022/03/10 06:54:47;;;;;;;3.90;3.38;;;18.80;39.60;;;;;;5080236;27;44937;-60
2022/03/10 06:57:17;;;;;;;3.88;3.42;;;18.80;39.60;;;;;;5081315;28;44029;-61
2022/03/10 06:59:45;;;;;;;4.20;3.15;;;18.80;39.60;;;;;;5080638;28;43523;-59
2022/03/10 07:02:12;;;;;;;3.50;3.20;;;18.80;39.50;;;;;;5083592;27;43676;-60
2022/03/10 07:04:40;;;;;;;5.25;3.20;;;18.90;39.50;;;;;;5079902;28;43977;-60
2022/03/10 07:07:07;;;;;;;3.05;2.83;;;18.90;39.60;;;;;;5080129;28;43424;-60
2022/03/10 07:09:35;;;;;;;3.58;3.28;;;18.90;39.50;;;;;;5083334;27;43419;-60
2022/03/10 07:12:03;;;;;;;3.10;2.90;;;18.90;39.60;;;;;;5081691;28;43532;-61
2022/03/10 07:14:31;;;;;;;3.38;3.08;;;18.90;39.60;;;;;;5081581;27;43816;-60
2022/03/10 07:16:59;;;;;;;3.35;3.08;;;18.90;39.60;;;;;;5080788;27;43816;-60
2022/03/10 07:19:27;;;;;;;3.40;2.90;;;18.90;39.60;;;;;;5082816;27;43532;-60
2022/03/10 07:21:54;;;;;;;3.10;2.90;;;18.90;39.60;;;;;;5082922;28;43604;-60
2022/03/10 07:24:22;;;;;;;3.67;3.05;;;18.90;39.60;;;;;;5079545;27;44699;-61
2022/03/10 07:26:55;;;;;;;3.40;3.10;;;18.90;39.50;;;;;;5083185;27;43686;-60
2022/03/10 07:29:22;;;;;;;3.40;3.10;;;19.00;39.50;;;;;;5082973;27;43474;-60
2022/03/10 07:31:50;;;;;;;3.08;2.78;;;19.00;39.70;;;;;;5082758;28;43614;-60
2022/03/10 07:34:17;;;;;;;3.65;3.20;;;19.00;39.50;;;;;;5082847;27;44720;-60
2022/03/10 07:36:45;;;;;;;3.30;3.00;;;19.00;40.20;;;;;;5083189;27;43670;-59
2022/03/10 07:39:12;;;;;;;3.40;3.10;;;19.00;39.60;;;;;;5082825;28;43444;-61
2022/03/10 07:41:40;;;;;;;3.53;3.13;;;19.00;39.60;;;;;;5082927;27;43496;-60
2022/03/10 07:44:07;;;;;;;3.30;3.00;;;19.00;39.60;;;;;;5079703;27;44702;-61
2022/03/10 07:46:35;;;;;;;3.45;3.15;;;19.10;39.60;;;;;;5082873;27;43659;-61
2022/03/10 07:49:04;;;;;;;3.20;2.90;;;19.00;39.50;;;;;;5083073;27;43418;-60
2022/03/10 07:51:31;;;;;;;3.20;2.90;;;19.10;39.50;;;;;;5080093;27;43461;-60
2022/03/10 07:53:59;;;;;;;3.15;2.95;;;19.10;39.60;;;;;;5079819;28;44698;-61
2022/03/10 07:56:26;;;;;;;3.25;3.00;;;19.10;39.50;;;;;;5082697;27;43505;-60
2022/03/10 07:58:54;;;;;;;3.15;2.88;;;19.10;39.50;;;;;;5085381;27;43395;-60
2022/03/10 08:01:21;;;;;;;3.42;3.13;;;19.10;39.50;;;;;;5084665;27;43531;-60
2022/03/10 08:03:49;;;;;;;3.95;3.15;;;19.20;39.50;;;;;;5083167;28;43743;-59
2022/03/10 08:06:16;;;;;;;3.60;3.30;;;19.20;40.10;;;;;;5085678;27;43387;-60
2022/03/10 08:08:44;;;;;;;3.25;3.05;;;19.20;39.50;;;;;;5086095;27;43480;-61
2022/03/10 08:11:11;;;;;;;3.25;3.05;;;19.20;39.60;;;;;;5085746;27;43587;-60
2022/03/10 08:13:39;;;;;;;2.97;2.78;;;19.20;39.50;;;;;;5085596;28;43599;-60
2022/03/10 08:16:10;;;;;;;3.10;2.90;;;19.20;39.50;;;;;;5085569;28;43973;-62
2022/03/10 08:18:38;;;;;;;3.28;2.97;;;19.30;39.60;;;;;;5085550;27;43475;-60
2022/03/10 08:21:06;;;;;;;3.30;3.00;;;19.30;39.50;;;;;;5081431;28;43503;-61
2022/03/10 08:23:33;;;;;;;3.20;3.00;;;19.30;39.40;;;;;;5085636;28;44994;-60
2022/03/10 08:26:01;;;;;;;3.97;3.60;;;19.30;39.50;;;;;;5085531;28;43511;-59
2022/03/10 08:28:28;;;;;;;4.75;3.20;;;19.30;39.50;;;;;;5085636;27;43495;-60
2022/03/10 08:30:56;;;;;;;4.95;3.13;;;19.30;39.60;;;;;;5082794;28;43446;-60
2022/03/10 08:33:24;;;;;;;4.03;3.03;;;19.40;39.60;;;;;;5085679;27;45118;-60
2022/03/10 08:35:52;;;;;;;4.43;3.03;;;19.40;39.50;;;;;;5085671;28;43957;-60
2022/03/10 08:38:19;;;;;;;4.43;3.20;;;19.50;39.60;;;;;;5086008;27;43544;-60
2022/03/10 08:40:47;;;;;;;4.38;3.30;;;19.60;39.60;;;;;;5082925;28;43449;-60
2022/03/10 08:43:16;;;;;;;3.13;2.83;;;19.60;39.50;;;;;;5085324;27;44723;-60
2022/03/10 08:45:44;;;;;;;3.40;3.10;;;19.70;39.30;;;;;;5085445;27;43700;-60
2022/03/10 08:48:11;;;;;;;7.55;3.33;;;19.80;39.20;;;;;;5085553;27;43468;-60
2022/03/10 08:50:39;;;;;;;3.70;3.00;;;19.80;39.10;;;;;;5083988;27;43446;-60
2022/03/10 08:53:07;;;;;;;3.67;3.28;;;19.90;39.20;;;;;;5084401;28;43772;-60
2022/03/10 08:55:35;;;;;;;3.25;2.95;;;20.10;39.30;;;;;;5077330;28;43795;-59
2022/03/10 08:58:02;;;;;;;3.50;3.20;;;20.20;39.10;;;;;;5085341;27;43381;-61
2022/03/10 09:00:30;;;;;;;4.03;2.80;;;20.40;39.00;;;;;;5084845;27;43442;-61
2022/03/10 09:02:58;;;;;;;3.38;3.10;;;20.50;38.90;;;;;;5085203;27;44971;-60
2022/03/10 09:05:28;;;;;;;2.85;2.65;;;20.60;38.80;;;;;;5079029;28;43781;-59
2022/03/10 09:07:55;;;;;;;3.20;3.00;;;20.80;38.70;;;;;;5085138;27;43453;-60
2022/03/10 09:10:25;;;;;;;3.10;2.80;;;20.90;38.50;;;;;;5083016;27;43498;-60
2022/03/10 09:12:53;;;;;;;3.60;3.30;;;21.10;38.40;;;;;;5084294;28;44054;-60
2022/03/10 09:15:21;;;;;;;5.13;3.55;;;21.20;37.60;;;;;;5084286;27;43999;-60
2022/03/10 09:17:49;;;;;;;5.45;3.40;;;21.40;37.60;;;;;;5083654;28;43526;-60
2022/03/10 09:20:16;;;;;;;3.72;3.38;;;21.50;37.60;;;;;;5083889;27;43491;-59
2022/03/10 09:22:45;;;;;;;3.67;3.38;;;21.60;37.60;;;;;;5084582;28;43814;-60
2022/03/10 09:25:13;;;;;;;3.47;3.08;;;21.70;37.40;;;;;;5084803;27;43820;-60
2022/03/10 09:27:41;;;;;;;4.35;3.38;;;21.80;37.20;;;;;;5082279;27;43480;-59
2022/03/10 09:30:11;;;;;;;3.63;3.33;;;22.00;37.40;;;;;;5080346;28;43456;-60
2022/03/10 09:32:43;;;;;;;4.30;3.28;;;22.20;37.20;;;;;;5081214;28;44319;-60
2022/03/10 09:35:14;;;;;;;4.18;3.00;;;22.30;37.10;;;;;;5084344;27;44030;-61
2022/03/10 09:37:42;;;;;;;5.30;3.15;;;22.40;37.10;;;;;;5082192;28;43408;-60
2022/03/10 09:40:11;;;;;;;4.18;3.00;;;22.50;37.20;;;;;;5081824;28;43468;-59
2022/03/10 09:42:38;;;;;;;3.47;3.17;;;22.60;37.10;;;;;;5080230;28;44031;-61
2022/03/10 09:45:09;;;;;;;4.60;3.20;;;22.70;36.90;;;;;;5084379;27;43634;-60
2022/03/10 09:47:39;;;;;;;3.25;2.80;;;22.80;37.80;;;;;;5081717;28;43480;-60
2022/03/10 09:50:12;;;;;;;3.93;3.03;;;23.00;37.00;;;;;;5081972;27;43436;-60
2022/03/10 09:52:44;;;;;;;3.50;3.20;;;23.10;36.70;;;;;;5076559;28;43806;-61
2022/03/10 09:55:14;;;;;;;3.25;2.90;;;23.20;36.70;;;;;;5083903;27;43505;-61
2022/03/10 09:57:43;;;;;;;3.47;2.80;;;23.40;36.50;;;;;;5081705;28;43456;-60
2022/03/10 10:00:13;;;;;;;3.88;2.72;;;23.40;36.30;;;;;;5084398;27;43466;-60
2022/03/10 10:02:42;;;;;;;5.38;3.05;;;23.60;36.40;;;;;;5083065;28;44974;-61
2022/03/10 10:05:46;;;;;;;3.35;3.08;;;23.60;36.10;;;;;;5079885;27;43512;-61
2022/03/10 10:08:17;;;;;;;2.97;2.75;;;23.70;36.00;;;;;;5080107;27;43524;-62
2022/03/10 10:10:47;;;;;;;3.13;2.80;;;23.80;35.90;;;;;;5084160;27;43585;-62
2022/03/10 10:13:38;;;;;;;3.60;3.30;;;23.90;36.00;;;;;;5077911;27;45015;-61
2022/03/10 10:16:13;;;;;;;4.05;2.90;;;23.90;35.70;;;;;;5075580;27;43471;-61
2022/03/10 10:18:42;;;;;;;3.83;3.00;;;23.90;35.90;;;;;;5080289;27;43476;-62
2022/03/10 10:21:20;;;;;;;3.20;2.90;;;23.90;35.80;;;;;;5081608;27;43485;-61
2022/03/10 10:23:53;;;;;;;3.45;2.90;;;23.90;35.90;;;;;;5080775;27;44017;-62
2022/03/10 10:26:26;;;;;;;3.78;2.92;;;24.00;36.00;;;;;;5073801;27;43836;-62
2022/03/10 10:28:54;;;;;;;3.85;3.00;;;24.00;35.80;;;;;;5082111;27;43481;-61
2022/03/10 10:31:26;;;;;;;3.25;2.95;;;24.00;35.80;;;;;;5081238;27;43543;-62
2022/03/10 10:34:10;;;;;;;3.42;3.13;;;24.00;36.00;;;;;;5083551;27;44488;-62
2022/03/10 10:36:38;;;;;;;4.40;3.00;;;24.00;35.90;;;;;;5084723;27;43431;-61
2022/03/10 10:39:15;;;;;;;5.35;3.03;;;24.00;36.00;;;;;;5080388;27;43434;-61
2022/03/10 10:41:47;;;;;;;3.12;2.73;;;24.00;35.90;;;;;;4261099;27;10001452;-62
2022/03/10 10:44:17;;;;;;;3.88;3.15;;;24.00;36.00;;;;;;5075113;27;43534;-61
2022/03/10 10:46:49;;;;;;;2.63;2.42;;;24.00;36.00;;;;;;5078435;27;44670;-61
2022/03/10 10:49:22;;;;;;;2.67;2.47;;;24.00;36.00;;;;;;5076482;27;43635;-61
2022/03/10 10:51:50;;;;;;;3.25;2.67;;;24.00;36.00;;;;;;5082277;27;43447;-61
2022/03/10 10:54:21;;;;;;;2.88;2.40;;;24.00;36.30;;;;;;5082138;27;43458;-61
2022/03/10 10:56:51;;;;;;;2.70;2.50;;;24.00;36.60;;;;;;5082910;27;44663;-62
2022/03/10 10:59:34;;;;;;;2.95;2.30;;;24.10;36.40;;;;;;5081945;27;43481;-61
2022/03/10 11:02:10;;;;;;;3.08;2.40;;;24.10;36.40;;;;;;5076929;27;43513;-61
2022/03/10 11:04:41;;;;;;;2.30;2.10;;;24.10;36.50;;;;;;5080178;27;43555;-62
2022/03/10 11:07:10;;;;;;;4.97;2.60;;;24.10;36.50;;;;;;5083288;27;43802;-61
2022/03/10 11:09:39;;;;;;;2.75;2.40;;;24.10;36.50;;;;;;5081534;27;43879;-61
2022/03/10 11:12:10;;;;;;;3.97;2.20;;;24.10;36.50;;;;;;5080377;27;43453;-61
2022/03/10 11:14:38;;;;;;;2.65;2.45;;;24.20;36.40;;;;;;5081165;27;44418;-61
2022/03/10 11:17:07;;;;;;;2.53;2.33;;;24.20;36.50;;;;;;5081648;27;43891;-61
2022/03/10 11:19:41;;;;;;;2.70;2.50;;;24.20;36.50;;;;;;5082066;27;43514;-62
2022/03/10 11:22:50;;;;;;;2.70;2.50;;;24.20;36.50;;;;;;5081479;27;43465;-61
2022/03/10 11:25:37;;;;;;;2.30;2.10;;;24.30;36.50;;;;;;5080389;27;44041;-61
2022/03/10 11:28:14;;;;;;;2.35;2.10;;;24.30;36.60;;;;;;5061164;27;44082;-61
2022/03/10 11:30:57;;;;;;;2.40;2.20;;;24.30;36.60;;;;;;5081047;27;43532;-62
2022/03/10 11:33:36;;;;;;;2.60;2.20;;;24.30;36.60;;;;;;5084487;27;43300;-62
2022/03/10 11:36:33;;;;;;;2.60;2.40;;;24.30;36.60;;;;;;5085279;27;43596;-62
2022/03/10 11:39:05;;;;;;;2.28;2.10;;;24.30;36.70;;;;;;5084406;27;44102;-62
2022/03/10 11:41:47;;;;;;;2.90;2.70;;;24.30;36.60;;;;;;5085890;27;43761;-61
2022/03/10 11:44:20;;;;;;;2.28;2.00;;;24.30;36.60;;;;;;5084843;27;43532;-62
2022/03/10 11:46:57;;;;;;;2.72;2.20;;;24.40;36.70;;;;;;5084888;27;43468;-62
2022/03/10 11:49:39;;;;;;;2.60;2.30;;;24.40;36.70;;;;;;5085484;27;43796;-62
2022/03/10 11:52:22;;;;;;;2.60;2.15;;;24.40;36.70;;;;;;5085221;27;43435;-62
2022/03/10 11:55:08;;;;;;;2.53;2.30;;;24.40;36.80;;;;;;5083117;27;43493;-62
2022/03/10 11:58:04;;;;;;;2.25;2.03;;;24.30;36.80;;;;;;5083867;27;43502;-61
2022/03/10 12:00:43;;;;;;;2.42;2.13;;;24.40;36.80;;;;;;5081054;27;44043;-61
2022/03/10 12:03:31;;;;;;;2.50;2.22;;;24.40;36.80;;;;;;5091865;27;43732;-61
2022/03/10 12:06:07;;;;;;;2.75;2.28;;;24.40;36.90;;;;;;5076760;27;43477;-63
2022/03/10 12:08:40;;;;;;;2.40;2.20;;;24.40;36.90;;;;;;5080870;27;43581;-62
2022/03/10 12:11:14;;;;;;;2.22;2.03;;;24.40;36.80;;;;;;5087631;27;44742;-62
2022/03/10 12:13:46;;;;;;;3.28;2.38;;;24.40;36.80;;;;;;5081042;27;43425;-62
2022/03/10 12:16:37;;;;;;;2.60;2.30;;;24.40;36.90;;;;;;5084287;27;43430;-62
2022/03/10 12:19:05;;;;;;;2.50;2.30;;;24.50;36.80;;;;;;5079365;27;43543;-61
2022/03/10 12:21:32;;;;;;;2.25;2.15;;;24.50;36.80;;;;;;5084741;27;43765;-61
2022/03/10 12:24:04;;;;;;;2.40;2.20;;;24.50;36.90;;;;;;5084797;27;43709;-62
2022/03/10 12:26:39;;;;;;;2.50;2.30;;;24.50;36.90;;;;;;5083841;27;43444;-62
2022/03/10 12:29:09;;;;;;;2.50;2.30;;;24.50;36.90;;;;;;5080162;27;43533;-62
2022/03/10 12:31:39;;;;;;;2.30;2.17;;;24.50;36.80;;;;;;5086835;27;43865;-61
2022/03/10 12:34:15;;;;;;;2.22;2.03;;;24.60;36.90;;;;;;5084584;27;44082;-61
2022/03/10 12:36:54;;;;;;;2.95;2.10;;;24.50;37.10;;;;;;5077771;27;43582;-62
2022/03/10 12:39:28;;;;;;;1.98;1.88;;;24.60;36.90;;;;;;5082101;27;43499;-62
2022/03/10 12:42:04;;;;;;;2.17;2.03;;;24.60;36.90;;;;;;5084581;27;44053;-62
2022/03/10 12:44:34;;;;;;;2.22;2.05;;;24.60;37.00;;;;;;5082658;27;43509;-62
2022/03/10 12:47:07;;;;;;;3.08;2.45;;;24.60;36.90;;;;;;5084215;27;43466;-61
2022/03/10 12:49:36;;;;;;;1.98;1.80;;;24.60;36.90;;;;;;5083746;27;43613;-61
2022/03/10 12:52:12;;;;;;;1.92;1.83;;;24.60;36.80;;;;;;5083515;27;44031;-62
2022/03/10 12:54:42;;;;;;;2.13;2.03;;;24.70;37.00;;;;;;5081885;27;43964;-61
2022/03/10 12:57:10;;;;;;;2.60;2.40;;;24.70;37.00;;;;;;5085310;27;43554;-62
2022/03/10 12:59:40;;;;;;;2.30;2.10;;;24.70;37.00;;;;;;5084811;27;43469;-61
2022/03/10 13:02:16;;;;;;;2.30;2.10;;;24.70;36.90;;;;;;5082444;27;43744;-61
2022/03/10 13:04:57;;;;;;;2.33;2.15;;;24.70;37.00;;;;;;5086152;27;43998;-61